createdAt,value
2022-09-03T00:03:29.011Z,99883.54
2022-09-03T00:08:40.865Z,100239.02
2022-09-03T00:13:52.452Z,100224.37
2022-09-03T00:19:02.945Z,100262.25
2022-09-03T00:24:15.220Z,100613.94
2022-09-03T00:29:26.715Z,100792.98
2022-09-03T00:34:39.353Z,100806.09
2022-09-03T00:39:46.269Z,60565.55
2022-09-03T00:45:09.419Z,89628.32
2022-09-03T00:50:26.105Z,99930.62
2022-09-03T00:55:47.636Z,120480.25
2022-09-03T01:00:55.032Z,91555.15
2022-09-03T01:06:15.673Z,101356.08
2022-09-03T01:11:33.542Z,101357.80
2022-09-03T01:16:47.927Z,101003.63
2022-09-03T01:22:20.975Z,100299.17
2022-09-03T01:27:40.134Z,99926.47
2022-09-03T01:32:55.350Z,99913.05
2022-09-03T01:38:15.252Z,100645.74
2022-09-03T01:43:44.696Z,101323.66
2022-09-03T01:49:02.998Z,101652.83
2022-09-03T01:54:36.682Z,101637.88
2022-09-03T01:59:49.559Z,99910.48
2022-09-03T02:05:08.008Z,99922.66
2022-09-03T02:10:17.713Z,99923.78
2022-09-03T02:15:27.025Z,99931.83
2022-09-03T02:20:34.289Z,100994.73
2022-09-03T02:25:46.329Z,100991.21
2022-09-03T02:30:55.469Z,101480.45
2022-09-03T02:36:02.951Z,99908.66
2022-09-03T02:41:09.899Z,99906.15
2022-09-03T02:46:22.517Z,100647.68
2022-09-03T02:51:33.106Z,101015.32
2022-09-03T02:56:40.102Z,101017.18
2022-09-03T03:01:47.012Z,101671.05
2022-09-03T03:06:53.944Z,101853.98
2022-09-03T03:12:00.736Z,101850.09
2022-09-03T03:17:07.972Z,101725.66
2022-09-03T03:22:14.712Z,100993.58
2022-09-03T03:27:21.814Z,100993.36
2022-09-03T03:32:29.312Z,101691.16
2022-09-03T03:37:36.849Z,101319.02
2022-09-03T03:42:44.040Z,100616.94
2022-09-03T03:47:50.955Z,101305.42
2022-09-03T03:53:00.116Z,101329.54
2022-09-03T03:58:07.007Z,101685.92
2022-09-03T04:03:13.854Z,101680.48
2022-09-03T04:08:20.644Z,101680.48
2022-09-03T04:13:29.730Z,101669.77
2022-09-03T04:18:37.694Z,101654.25
2022-09-03T04:23:46.314Z,101633.76
2022-09-03T04:28:53.416Z,60970.54
2022-09-03T04:34:00.661Z,100842.14
2022-09-03T04:39:07.566Z,100477.19
2022-09-03T04:44:14.297Z,101548.60
2022-09-03T04:49:21.710Z,101565.67
2022-09-03T04:54:29.635Z,101591.60
2022-09-03T04:59:37.129Z,101548.33
2022-09-03T05:04:43.911Z,40625.02
2022-09-03T05:09:50.663Z,-1.00
2022-09-03T05:14:57.420Z,-1.00
2022-09-03T05:20:04.727Z,-1.00
2022-09-03T05:25:12.116Z,-1.00
2022-09-03T05:30:19.479Z,-1.00
2022-09-03T05:35:30.154Z,-1.00
2022-09-03T05:40:37.252Z,-1.00
2022-09-03T05:45:44.138Z,-1.00
2022-09-03T05:50:51.096Z,-1.00
2022-09-03T05:56:01.652Z,-1.00
2022-09-03T06:01:15.438Z,-1.00
2022-09-03T06:06:25.951Z,-1.00
2022-09-03T06:11:34.864Z,-1.00
2022-09-03T06:16:45.518Z,-1.00
2022-09-03T06:21:52.415Z,-1.00
2022-09-03T06:26:59.529Z,-1.00
2022-09-03T06:32:07.143Z,19440.69
2022-09-03T06:37:13.995Z,98136.76
2022-09-03T06:42:22.949Z,98787.13
2022-09-03T06:47:32.767Z,59345.02
2022-09-03T06:52:40.991Z,-1.00
2022-09-03T06:57:47.727Z,-1.00
2022-09-03T07:03:00.648Z,-1.00
2022-09-03T07:08:08.066Z,-1.00
2022-09-03T07:13:15.026Z,-1.00
2022-09-03T07:18:21.966Z,-1.00
2022-09-03T07:23:38.188Z,-1.00
2022-09-03T07:28:47.139Z,-1.00
2022-09-03T07:33:55.658Z,-1.00
2022-09-03T07:39:04.003Z,-1.00
2022-09-03T07:44:11.015Z,-1.00
2022-09-03T07:49:18.176Z,-1.00
2022-09-03T07:54:27.499Z,58692.05
2022-09-03T07:59:34.556Z,98395.68
2022-09-03T08:04:41.419Z,98562.30
2022-09-03T08:09:52.424Z,98644.77
2022-09-03T08:15:01.985Z,98721.69
2022-09-03T08:20:10.627Z,98754.50
2022-09-03T08:25:17.878Z,98779.64
2022-09-03T08:30:25.423Z,98833.07
2022-09-03T08:35:34.885Z,98802.02
2022-09-03T08:40:43.427Z,98794.11
2022-09-03T08:45:50.706Z,98810.44
2022-09-03T08:51:04.736Z,98725.56
2022-09-03T08:56:20.831Z,98769.69
2022-09-03T09:01:55.227Z,98772.30
2022-09-03T09:07:12.275Z,98779.98
2022-09-03T09:12:37.586Z,19759.43
2022-09-03T09:18:06.231Z,-1.00
2022-09-03T09:23:17.268Z,-1.00
2022-09-03T09:28:26.615Z,-1.00
2022-09-03T09:33:35.544Z,-1.00
2022-09-03T09:38:43.354Z,-1.00
2022-09-03T09:44:01.706Z,-1.00
2022-09-03T09:49:31.360Z,-1.00
2022-09-03T09:54:38.640Z,-1.00
2022-09-03T09:59:45.943Z,-1.00
2022-09-03T10:04:53.063Z,-1.00
2022-09-03T10:10:09.260Z,-1.00
2022-09-03T10:15:25.095Z,-1.00
2022-09-03T10:20:42.197Z,-1.00
2022-09-03T10:26:04.729Z,-1.00
2022-09-03T10:31:32.049Z,-1.00
2022-09-03T10:36:45.551Z,-1.00
2022-09-03T10:42:06.757Z,-1.00
2022-09-03T10:47:30.287Z,-1.00
2022-09-03T10:52:50.068Z,-1.00
2022-09-03T10:58:12.402Z,-1.00
2022-09-03T11:03:45.734Z,-1.00
2022-09-03T11:09:05.813Z,-1.00
2022-09-03T11:14:19.135Z,-1.00
2022-09-03T11:19:34.263Z,-1.00
2022-09-03T11:24:42.930Z,-1.00
2022-09-03T11:29:55.407Z,-1.00
2022-09-03T11:35:19.394Z,-1.00
2022-09-03T11:40:38.114Z,-1.00
2022-09-03T11:45:45.372Z,-1.00
2022-09-03T11:50:58.642Z,-1.00
2022-09-03T11:56:20.235Z,-1.00
2022-09-03T12:01:30.084Z,-1.00
2022-09-03T12:06:51.904Z,-1.00
2022-09-03T12:12:10.826Z,-1.00
2022-09-03T12:17:25.085Z,-1.00
2022-09-03T12:22:39.572Z,-1.00
2022-09-03T12:27:49.458Z,-1.00
2022-09-03T12:33:06.888Z,-1.00
2022-09-03T12:38:24.157Z,-1.00
2022-09-03T12:43:41.147Z,-1.00
2022-09-03T12:54:32.468Z,-1.00
2022-09-03T12:59:41.019Z,-1.00
2022-09-03T13:04:48.671Z,-1.00
2022-09-03T13:10:04.760Z,-1.00
2022-09-03T13:15:22.274Z,-1.00
2022-09-03T13:20:39.499Z,-1.00
2022-09-03T13:26:05.335Z,-1.00
2022-09-03T13:31:28.346Z,-1.00
2022-09-03T13:36:44.664Z,-1.00
2022-09-03T13:41:57.383Z,-1.00
2022-09-03T13:47:10.666Z,-1.00
2022-09-03T13:52:59.398Z,-1.00
2022-09-03T13:58:17.681Z,-1.00
2022-09-03T14:03:35.020Z,-1.00
2022-09-03T14:08:58.918Z,-1.00
2022-09-03T14:14:20.701Z,-1.00
2022-09-03T14:19:40.371Z,-1.00
2022-09-03T14:24:53.470Z,-1.00
2022-09-03T14:30:05.149Z,-1.00
2022-09-03T14:35:24.589Z,-1.00
2022-09-03T14:40:41.525Z,-1.00
2022-09-03T14:46:05.948Z,-1.00
2022-09-03T14:51:24.515Z,-1.00
2022-09-03T14:56:44.354Z,-1.00
2022-09-03T15:02:08.424Z,-1.00
2022-09-03T15:07:27.864Z,-1.00
2022-09-03T15:12:41.261Z,-1.00
2022-09-03T15:18:02.755Z,-1.00
2022-09-03T15:23:27.112Z,-1.00
2022-09-03T15:28:45.612Z,-1.00
2022-09-03T15:34:01.086Z,-1.00
2022-09-03T15:39:13.588Z,-1.00
2022-09-03T15:44:21.683Z,-1.00
2022-09-03T15:49:45.623Z,-1.00
2022-09-03T15:54:59.871Z,39531.37
2022-09-03T16:00:12.863Z,98967.87
2022-09-03T16:05:28.978Z,99046.61
2022-09-03T16:10:51.663Z,99079.15
2022-09-03T16:16:05.340Z,99125.33
2022-09-03T16:21:21.683Z,99149.58
2022-09-03T16:26:33.618Z,99166.67
2022-09-03T16:31:53.501Z,99186.15
2022-09-03T16:37:15.843Z,99186.35
2022-09-03T16:42:30.447Z,99208.54
2022-09-03T16:47:49.668Z,99248.56
2022-09-03T16:53:11.452Z,99239.14
2022-09-03T16:58:26.915Z,98986.96
2022-09-03T17:04:09.130Z,98987.32
2022-09-03T17:09:33.801Z,99006.46
2022-09-03T17:15:07.708Z,99009.61
2022-09-03T17:20:21.134Z,99009.32
2022-09-03T17:25:35.780Z,99010.23
2022-09-03T17:30:50.267Z,99002.10
2022-09-03T17:36:07.587Z,99020.19
2022-09-03T17:41:32.351Z,99196.70
2022-09-03T17:47:03.019Z,99226.33
2022-09-03T17:52:27.341Z,99210.02
2022-09-03T17:57:41.576Z,99190.04
2022-09-03T18:02:57.253Z,99170.79
2022-09-03T18:08:10.336Z,99128.80
2022-09-03T18:13:26.197Z,99109.65
2022-09-03T18:18:35.571Z,99086.81
2022-09-03T18:24:08.776Z,99101.46
2022-09-03T18:29:39.162Z,99132.20
2022-09-03T18:35:05.173Z,99163.85
2022-09-03T18:40:41.845Z,99235.15
2022-09-03T18:47:47.444Z,99303.65
2022-09-03T18:52:08.375Z,99355.35
2022-09-03T18:57:40.427Z,99404.72
2022-09-03T19:03:20.081Z,99448.47
2022-09-03T19:08:51.104Z,99465.75
2022-09-03T19:14:15.719Z,99487.19
2022-09-03T19:19:57.878Z,99504.08
2022-09-03T19:25:31.190Z,99530.75
2022-09-03T19:31:21.813Z,99549.33
2022-09-03T19:36:56.110Z,99545.27
2022-09-03T19:42:28.900Z,99565.00
2022-09-03T19:48:05.176Z,99578.33
2022-09-03T19:53:32.589Z,99583.21
2022-09-03T19:59:00.891Z,99561.38
2022-09-03T20:04:33.028Z,99570.13
2022-09-03T20:10:01.286Z,99586.08
2022-09-03T20:15:09.951Z,99604.81
2022-09-03T20:20:25.506Z,99602.43
2022-09-03T20:25:43.062Z,99598.92
2022-09-03T20:30:57.268Z,99593.28
2022-09-03T20:36:15.032Z,99579.30
2022-09-03T20:41:29.423Z,99573.46
2022-09-03T20:46:48.075Z,99568.45
2022-09-03T20:52:06.122Z,99518.35
2022-09-03T20:57:33.445Z,99495.77
2022-09-03T21:03:08.528Z,99492.02
2022-09-03T21:08:39.572Z,99476.46
2022-09-03T21:13:55.232Z,99480.86
2022-09-03T21:19:12.600Z,99499.67
2022-09-03T21:24:22.120Z,99505.20
2022-09-03T21:29:33.109Z,99514.57
2022-09-03T21:34:45.989Z,99505.09
2022-09-03T21:39:56.145Z,99505.08
2022-09-03T21:45:08.051Z,99511.53
2022-09-03T21:50:21.203Z,99510.27
2022-09-03T21:55:43.151Z,99517.73
2022-09-03T22:00:56.061Z,99526.63
2022-09-03T22:06:08.791Z,99514.35
2022-09-03T22:11:17.702Z,99520.98
2022-09-03T22:16:30.396Z,99537.46
2022-09-03T22:21:44.523Z,99535.93
2022-09-03T22:26:56.933Z,99529.30
2022-09-03T22:32:13.204Z,99524.11
2022-09-03T22:37:29.122Z,99532.17
2022-09-03T22:42:51.265Z,99541.40
2022-09-03T22:48:12.097Z,99556.36
2022-09-03T22:53:22.963Z,99536.02
2022-09-03T22:58:35.803Z,99565.38
2022-09-03T23:03:51.751Z,99575.09
2022-09-03T23:09:04.038Z,99575.85
2022-09-03T23:14:14.187Z,99571.70
2022-09-03T23:19:30.568Z,99569.69
2022-09-03T23:24:41.797Z,99574.88
2022-09-03T23:29:52.951Z,99574.17
2022-09-03T23:35:01.441Z,99573.42
2022-09-03T23:40:28.182Z,99587.58
2022-09-03T23:45:46.089Z,99595.79
2022-09-03T23:51:04.074Z,99590.50
2022-09-03T23:56:38.183Z,99575.95
